Time;durP1;ratioP1;P1;durP2;ratioP2;P2;SDS_P1;SDS_P2;PMS_P1;PMS_P2;Temp;Humidity;BMP_temperature;BMP_pressure;BME280_temperature;BME280_humidity;BME280_pressure;Samples;Min_cycle;Max_cycle;Signal;HPM_P1;HPM_P2
2023/06/01 00:01:37;;;;;;;;;;;10.30;70.40;;;;;;4059360;29;20002;-86
2023/06/01 00:03:57;;;;;;;;;;;10.30;70.70;;;;;;4056314;29;20345;-85
2023/06/01 00:06:18;;;;;;;;;;;10.30;70.80;;;;;;4057573;29;20002;-85
2023/06/01 00:08:39;;;;;;;;;;;10.40;70.60;;;;;;4059734;29;20063;-87
2023/06/01 00:11:00;;;;;;;;;;;10.40;70.50;;;;;;4056274;29;20053;-85
2023/06/01 00:13:21;;;;;;;;;;;10.40;70.50;;;;;;4061893;29;19915;-86
2023/06/01 00:15:43;;;;;;;;;;;10.40;70.50;;;;;;4050866;29;19919;-85
2023/06/01 00:18:05;;;;;;;;;;;10.40;70.50;;;;;;4050178;29;19926;-85
2023/06/01 00:20:28;;;;;;;;;;;10.40;70.50;;;;;;4048980;29;20034;-85
2023/06/01 00:22:49;;;;;;;;;;;10.50;70.50;;;;;;4059346;29;20385;-84
2023/06/01 00:25:10;;;;;;;;;;;10.40;70.50;;;;;;4062763;29;19926;-84
2023/06/01 00:27:31;;;;;;;;;;;10.50;70.50;;;;;;4059746;29;19923;-87
2023/06/01 00:29:52;;;;;;;;;;;10.50;70.50;;;;;;4065909;29;19919;-85
2023/06/01 00:32:13;;;;;;;;;;;10.40;70.30;;;;;;4060437;29;19931;-84
2023/06/01 00:34:33;;;;;;;;;;;10.40;70.20;;;;;;4046462;29;19954;-86
2023/06/01 00:36:54;;;;;;;;;;;10.50;70.20;;;;;;4052232;29;20011;-83
2023/06/01 00:39:15;;;;;;;;;;;10.40;70.10;;;;;;4052395;29;19919;-84
2023/06/01 00:41:36;;;;;;;;;;;10.40;69.90;;;;;;4061486;29;20295;-83
2023/06/01 00:43:57;;;;;;;;;;;10.40;69.90;;;;;;4061630;29;19930;-84
2023/06/01 00:46:18;;;;;;;;;;;10.40;69.90;;;;;;4060189;29;19919;-85
2023/06/01 00:48:39;;;;;;;;;;;10.40;69.90;;;;;;4065161;29;19926;-85
2023/06/01 00:51:00;;;;;;;;;;;10.40;69.80;;;;;;4062827;29;19923;-85
2023/06/01 00:53:20;;;;;;;;;;;10.40;69.60;;;;;;4064478;29;19929;-87
2023/06/01 00:55:41;;;;;;;;;;;10.50;69.60;;;;;;4066400;29;19946;-82
2023/06/01 00:58:02;;;;;;;;;;;10.30;69.50;;;;;;4056989;29;20009;-85
2023/06/01 01:00:26;;;;;;;;;;;10.40;69.50;;;;;;4064749;29;19966;-86
2023/06/01 01:02:51;;;;;;;;;;;10.30;69.40;;;;;;4064523;29;19923;-85
2023/06/01 01:05:12;;;;;;;;;;;10.40;69.40;;;;;;4052632;29;20010;-82
2023/06/01 01:07:36;;;;;;;;;;;10.40;69.40;;;;;;4061315;29;20034;-85
2023/06/01 01:10:00;;;;;;;;;;;10.30;69.40;;;;;;4058844;29;20298;-85
2023/06/01 01:12:23;;;;;;;;;;;10.30;69.20;;;;;;4063170;29;19923;-85
2023/06/01 01:15:08;;;;;;;;;;;10.30;69.10;;;;;;4052707;29;19943;-86
2023/06/01 01:17:51;;;;;;;;;;;10.30;69.10;;;;;;4070713;29;19927;-87
2023/06/01 01:20:15;;;;;;;;;;;10.30;69.10;;;;;;4054457;29;20598;-82
2023/06/01 01:22:38;;;;;;;;;;;10.40;69.20;;;;;;4063416;29;19919;-84
2023/06/01 01:25:18;;;;;;;;;;;10.30;69.10;;;;;;4052200;29;19919;-84
2023/06/01 01:27:43;;;;;;;;;;;10.30;69.20;;;;;;4061461;29;19984;-86
2023/06/01 01:30:05;;;;;;;;;;;10.30;69.30;;;;;;4065281;29;19919;-83
2023/06/01 01:32:26;;;;;;;;;;;10.30;69.20;;;;;;4052469;29;19986;-85
2023/06/01 01:34:48;;;;;;;;;;;10.20;69.20;;;;;;4061731;29;19967;-85
2023/06/01 01:37:09;;;;;;;;;;;10.40;69.40;;;;;;4064299;29;19919;-83
2023/06/01 01:39:30;;;;;;;;;;;10.20;69.20;;;;;;4061193;29;20507;-85
2023/06/01 01:41:51;;;;;;;;;;;10.20;69.40;;;;;;4063048;29;19933;-85
2023/06/01 01:44:14;;;;;;;;;;;10.20;69.30;;;;;;4063199;29;19946;-86
2023/06/01 01:46:51;;;;;;;;;;;10.30;69.40;;;;;;4064241;29;19946;-85
2023/06/01 01:49:14;;;;;;;;;;;10.20;69.30;;;;;;4059966;29;19955;-85
2023/06/01 01:51:41;;;;;;;;;;;10.30;69.30;;;;;;4061142;29;19936;-85
2023/06/01 01:54:04;;;;;;;;;;;10.30;69.20;;;;;;4056432;29;19923;-86
2023/06/01 01:56:26;;;;;;;;;;;10.30;69.10;;;;;;4052242;29;19923;-86
2023/06/01 01:58:47;;;;;;;;;;;10.30;69.30;;;;;;4049057;29;19926;-85
2023/06/01 02:01:08;;;;;;;;;;;10.30;69.20;;;;;;4062352;29;19930;-85
2023/06/01 02:03:29;;;;;;;;;;;10.30;69.40;;;;;;4064052;29;19923;-83
2023/06/01 02:05:50;;;;;;;;;;;10.30;69.40;;;;;;4065686;29;19946;-85
2023/06/01 02:08:11;;;;;;;;;;;10.30;69.40;;;;;;4060736;29;19919;-84
2023/06/01 02:10:31;;;;;;;;;;;10.30;69.40;;;;;;4063805;29;19926;-86
2023/06/01 02:12:52;;;;;;;;;;;10.30;69.40;;;;;;4059878;29;19923;-85
2023/06/01 02:15:13;;;;;;;;;;;10.30;69.50;;;;;;4061082;29;19919;-86
2023/06/01 02:17:34;;;;;;;;;;;10.40;69.50;;;;;;4059332;29;19919;-85
2023/06/01 02:19:55;;;;;;;;;;;10.30;69.20;;;;;;4062937;29;20445;-85
2023/06/01 02:22:16;;;;;;;;;;;10.30;69.50;;;;;;4056219;29;21528;-85
2023/06/01 02:24:37;;;;;;;;;;;10.30;69.50;;;;;;4063867;29;19923;-85
2023/06/01 02:26:57;;;;;;;;;;;10.30;69.60;;;;;;4063803;29;19926;-84
2023/06/01 02:29:21;;;;;;;;;;;10.40;69.50;;;;;;4064320;29;19923;-86
2023/06/01 02:31:42;;;;;;;;;;;10.30;69.50;;;;;;4065174;29;19942;-87
2023/06/01 02:34:03;;;;;;;;;;;10.30;69.40;;;;;;4064699;29;20367;-87
2023/06/01 02:36:25;;;;;;;;;;;10.30;69.40;;;;;;4060344;29;19915;-85
2023/06/01 02:38:46;;;;;;;;;;;10.30;69.50;;;;;;4065807;29;20132;-86
2023/06/01 02:41:07;;;;;;;;;;;10.30;69.40;;;;;;4059174;29;20138;-87
2023/06/01 02:43:27;;;;;;;;;;;10.30;69.30;;;;;;4057110;29;19927;-83
2023/06/01 02:45:48;;;;;;;;;;;10.30;69.50;;;;;;4048870;29;20376;-85
2023/06/01 02:48:09;;;;;;;;;;;10.30;69.40;;;;;;4050227;29;19947;-86
2023/06/01 02:50:30;;;;;;;;;;;10.30;69.40;;;;;;4063557;29;19920;-85
2023/06/01 02:52:51;;;;;;;;;;;10.20;69.50;;;;;;4062772;29;19924;-85
2023/06/01 02:55:12;;;;;;;;;;;10.30;69.60;;;;;;4064659;29;19926;-85
2023/06/01 02:57:33;;;;;;;;;;;10.20;69.30;;;;;;4053338;29;19924;-85
2023/06/01 02:59:54;;;;;;;;;;;10.30;69.40;;;;;;4061822;29;19975;-85
2023/06/01 03:02:15;;;;;;;;;;;10.30;69.30;;;;;;4053841;29;19916;-85
2023/06/01 03:04:35;;;;;;;;;;;10.20;69.20;;;;;;4062324;29;19919;-83
2023/06/01 03:06:58;;;;;;;;;;;10.30;69.20;;;;;;4062729;29;19919;-86
2023/06/01 03:09:19;;;;;;;;;;;10.20;69.30;;;;;;4065226;29;19919;-85
2023/06/01 03:11:40;;;;;;;;;;;10.30;69.20;;;;;;4061165;29;20349;-84
2023/06/01 03:14:01;;;;;;;;;;;10.30;69.20;;;;;;4061275;29;19967;-83
2023/06/01 03:16:23;;;;;;;;;;;10.30;69.10;;;;;;4062764;29;19975;-85
2023/06/01 03:18:43;;;;;;;;;;;10.30;69.10;;;;;;4061904;29;20014;-85
2023/06/01 03:21:04;;;;;;;;;;;10.20;69.20;;;;;;4061307;29;20298;-84
2023/06/01 03:23:25;;;;;;;;;;;10.30;69.30;;;;;;4065169;29;20014;-87
2023/06/01 03:25:46;;;;;;;;;;;10.20;69.20;;;;;;4064559;29;19919;-84
2023/06/01 03:28:07;;;;;;;;;;;10.30;69.10;;;;;;4054264;29;19931;-86
2023/06/01 03:30:28;;;;;;;;;;;10.20;68.90;;;;;;4052966;29;20017;-84
2023/06/01 03:32:49;;;;;;;;;;;10.20;68.90;;;;;;4065704;29;19923;-84
2023/06/01 03:35:11;;;;;;;;;;;10.20;68.80;;;;;;4064147;29;19919;-84
2023/06/01 03:37:32;;;;;;;;;;;10.20;68.90;;;;;;4066582;29;20411;-87
2023/06/01 03:39:52;;;;;;;;;;;10.20;68.90;;;;;;4059345;29;19920;-85
2023/06/01 03:42:13;;;;;;;;;;;10.30;69.00;;;;;;4062700;29;19926;-85
2023/06/01 03:44:34;;;;;;;;;;;10.30;69.00;;;;;;4058371;29;22093;-86
2023/06/01 03:46:55;;;;;;;;;;;10.30;68.90;;;;;;4067296;29;19916;-85
2023/06/01 03:49:16;;;;;;;;;;;10.30;68.90;;;;;;4064790;29;19922;-86
2023/06/01 03:51:37;;;;;;;;;;;10.30;69.00;;;;;;4053343;29;20122;-87
2023/06/01 03:53:57;;;;;;;;;;;10.30;68.90;;;;;;4064702;29;20702;-85
2023/06/01 03:56:19;;;;;;;;;;;10.30;68.70;;;;;;4060059;29;20407;-85
2023/06/01 03:58:40;;;;;;;;;;;10.30;68.60;;;;;;4066587;29;19915;-85
2023/06/01 04:01:03;;;;;;;;;;;10.20;68.40;;;;;;4064313;29;20066;-83
2023/06/01 04:03:25;;;;;;;;;;;10.20;68.30;;;;;;4048548;29;19923;-85
2023/06/01 04:05:49;;;;;;;;;;;10.30;68.30;;;;;;4060489;29;19926;-84
2023/06/01 04:08:10;;;;;;;;;;;10.20;68.30;;;;;;4049937;29;19930;-84
2023/06/01 04:10:31;;;;;;;;;;;10.20;68.20;;;;;;4054602;29;19916;-85
2023/06/01 04:12:52;;;;;;;;;;;10.20;68.20;;;;;;4063180;29;19938;-87
2023/06/01 04:15:13;;;;;;;;;;;10.20;68.20;;;;;;4066075;29;20379;-87
2023/06/01 04:17:38;;;;;;;;;;;10.20;68.20;;;;;;4060586;29;19930;-88
2023/06/01 04:19:59;;;;;;;;;;;10.20;68.20;;;;;;4061424;29;20434;-85
2023/06/01 04:22:20;;;;;;;;;;;10.20;68.50;;;;;;4048803;29;19915;-85
2023/06/01 04:24:41;;;;;;;;;;;10.20;68.30;;;;;;4060814;29;19919;-86
2023/06/01 04:27:02;;;;;;;;;;;10.20;68.30;;;;;;4059166;29;19952;-87
2023/06/01 04:29:24;;;;;;;;;;;10.20;68.20;;;;;;4063013;29;20320;-86
2023/06/01 04:31:45;;;;;;;;;;;10.20;68.20;;;;;;4064425;29;19936;-87
2023/06/01 04:34:06;;;;;;;;;;;10.30;68.10;;;;;;4062678;29;19958;-85
2023/06/01 04:36:32;;;;;;;;;;;10.30;68.20;;;;;;4052870;29;19975;-86
2023/06/01 04:38:54;;;;;;;;;;;10.30;68.20;;;;;;4061893;29;19919;-85
2023/06/01 04:41:15;;;;;;;;;;;10.30;68.30;;;;;;4061533;29;20166;-84
2023/06/01 04:43:38;;;;;;;;;;;10.30;68.10;;;;;;4066377;29;19930;-85
2023/06/01 04:46:03;;;;;;;;;;;10.30;68.20;;;;;;4059554;29;19919;-84
2023/06/01 04:48:24;;;;;;;;;;;10.30;68.10;;;;;;4062350;29;19919;-85
2023/06/01 04:50:45;;;;;;;;;;;10.40;68.20;;;;;;4070540;29;19915;-84
2023/06/01 04:53:06;;;;;;;;;;;10.40;68.20;;;;;;4061172;29;19926;-86
2023/06/01 04:55:26;;;;;;;;;;;10.40;68.10;;;;;;4060638;29;19915;-86
2023/06/01 04:57:47;;;;;;;;;;;10.40;68.10;;;;;;4061616;29;19923;-86
2023/06/01 05:00:12;;;;;;;;;;;10.50;68.20;;;;;;4059945;29;20418;-85
2023/06/01 05:02:32;;;;;;;;;;;10.50;68.00;;;;;;4060696;29;19919;-86
2023/06/01 05:04:53;;;;;;;;;;;10.50;68.00;;;;;;4048704;29;19915;-84
2023/06/01 05:07:14;;;;;;;;;;;10.50;67.90;;;;;;4060073;29;19939;-85
2023/06/01 05:09:35;;;;;;;;;;;10.50;67.90;;;;;;4058683;29;19958;-87
2023/06/01 05:11:56;;;;;;;;;;;10.50;67.90;;;;;;4052967;29;19927;-87
2023/06/01 05:14:16;;;;;;;;;;;10.60;68.00;;;;;;4049115;29;19919;-85
2023/06/01 05:16:37;;;;;;;;;;;10.60;68.00;;;;;;4053652;29;20010;-86
2023/06/01 05:19:01;;;;;;;;;;;10.60;68.00;;;;;;4066204;29;19919;-87
2023/06/01 05:21:22;;;;;;;;;;;10.60;68.20;;;;;;4062653;29;19943;-85
2023/06/01 05:23:43;;;;;;;;;;;10.60;68.30;;;;;;4063337;29;20037;-88
2023/06/01 05:26:05;;;;;;;;;;;10.70;68.30;;;;;;4062425;29;19923;-85
2023/06/01 05:28:26;;;;;;;;;;;10.70;68.30;;;;;;4064841;29;20356;-86
2023/06/01 05:30:50;;;;;;;;;;;10.90;68.40;;;;;;4055144;29;19923;-86
2023/06/01 05:33:11;;;;;;;;;;;10.80;68.30;;;;;;4055665;29;19923;-86
2023/06/01 05:35:32;;;;;;;;;;;10.90;68.20;;;;;;4065777;29;19931;-86
2023/06/01 05:37:52;;;;;;;;;;;11.00;68.10;;;;;;4051250;29;19923;-87
2023/06/01 05:40:13;;;;;;;;;;;11.00;68.10;;;;;;4062814;29;19919;-85
2023/06/01 05:42:34;;;;;;;;;;;11.10;68.50;;;;;;4066308;29;20280;-85
2023/06/01 05:44:55;;;;;;;;;;;11.10;67.60;;;;;;4059677;29;19919;-86
2023/06/01 05:47:16;;;;;;;;;;;11.30;67.40;;;;;;4051280;29;19915;-85
2023/06/01 05:49:37;;;;;;;;;;;11.30;67.30;;;;;;4062597;29;19919;-85
2023/06/01 05:51:58;;;;;;;;;;;11.30;67.20;;;;;;4063612;29;19923;-87
2023/06/01 05:54:19;;;;;;;;;;;11.30;67.00;;;;;;4050932;29;19926;-85
2023/06/01 05:56:44;;;;;;;;;;;11.30;66.80;;;;;;4059807;29;19962;-87
2023/06/01 05:59:06;;;;;;;;;;;11.40;66.50;;;;;;4052623;29;19915;-85
2023/06/01 06:01:27;;;;;;;;;;;11.40;66.20;;;;;;4061964;29;20831;-85
2023/06/01 06:03:50;;;;;;;;;;;11.40;65.90;;;;;;4053416;29;20400;-85
2023/06/01 06:06:11;;;;;;;;;;;11.40;65.90;;;;;;4049205;29;19926;-86
2023/06/01 06:08:32;;;;;;;;;;;11.40;66.00;;;;;;4049788;29;20395;-85
2023/06/01 06:10:53;;;;;;;;;;;11.40;66.10;;;;;;4061609;29;19919;-88
2023/06/01 06:13:14;;;;;;;;;;;11.60;66.50;;;;;;4056109;29;19920;-86
2023/06/01 06:15:35;;;;;;;;;;;11.50;66.50;;;;;;4058179;29;19975;-86
2023/06/01 06:17:55;;;;;;;;;;;11.70;66.40;;;;;;4069389;29;19926;-87
2023/06/01 06:20:21;;;;;;;;;;;11.60;65.90;;;;;;4068403;29;19919;-87
2023/06/01 06:22:42;;;;;;;;;;;11.70;65.60;;;;;;4068461;29;20005;-86
2023/06/01 06:25:04;;;;;;;;;;;11.80;65.50;;;;;;4052806;29;20403;-86
2023/06/01 06:27:25;;;;;;;;;;;11.80;65.50;;;;;;4062921;29;19962;-85
2023/06/01 06:29:45;;;;;;;;;;;11.90;65.10;;;;;;4057382;29;19930;-85
2023/06/01 06:32:06;;;;;;;;;;;11.90;64.90;;;;;;4060889;29;19930;-89
2023/06/01 06:34:33;;;;;;;;;;;11.90;64.70;;;;;;4063316;29;19927;-88
2023/06/01 06:36:54;;;;;;;;;;;11.90;64.70;;;;;;4074985;29;19919;-88
2023/06/01 06:39:15;;;;;;;;;;;11.90;64.70;;;;;;4062028;29;19927;-86
2023/06/01 06:41:36;;;;;;;;;;;12.00;64.60;;;;;;4062121;29;20055;-85
2023/06/01 06:43:57;;;;;;;;;;;12.10;64.70;;;;;;4050951;29;20122;-86
2023/06/01 06:46:18;;;;;;;;;;;12.00;64.40;;;;;;4057712;29;19987;-85
2023/06/01 06:48:39;;;;;;;;;;;12.10;64.00;;;;;;4064284;29;19915;-86
2023/06/01 06:51:00;;;;;;;;;;;12.20;63.90;;;;;;4061565;29;19920;-86
2023/06/01 06:53:21;;;;;;;;;;;12.10;63.80;;;;;;4050096;29;20066;-89
2023/06/01 06:55:42;;;;;;;;;;;12.20;63.90;;;;;;4061142;29;19927;-85
2023/06/01 06:58:03;;;;;;;;;;;12.20;63.60;;;;;;4057944;29;20184;-85
2023/06/01 07:00:24;;;;;;;;;;;12.10;63.20;;;;;;4063643;29;19915;-88
2023/06/01 07:02:45;;;;;;;;;;;12.20;63.60;;;;;;4059105;29;19919;-86
2023/06/01 07:05:08;;;;;;;;;;;12.30;63.70;;;;;;4050547;29;19920;-83
2023/06/01 07:07:28;;;;;;;;;;;12.20;63.60;;;;;;4060457;29;19934;-84
2023/06/01 07:09:49;;;;;;;;;;;12.30;63.50;;;;;;4060909;29;19919;-85
2023/06/01 07:12:10;;;;;;;;;;;12.20;63.30;;;;;;4061565;29;19923;-87
2023/06/01 07:14:31;;;;;;;;;;;12.40;63.30;;;;;;4059720;29;19984;-86
2023/06/01 07:16:52;;;;;;;;;;;12.30;63.40;;;;;;4060531;29;20450;-85
2023/06/01 07:19:13;;;;;;;;;;;12.40;63.30;;;;;;4061258;29;19919;-86
2023/06/01 07:21:33;;;;;;;;;;;12.50;63.20;;;;;;4061356;29;19919;-85
2023/06/01 07:23:54;;;;;;;;;;;12.40;62.50;;;;;;4049506;29;19941;-86
2023/06/01 07:26:15;;;;;;;;;;;12.50;62.40;;;;;;4058516;29;19919;-86
2023/06/01 07:28:36;;;;;;;;;;;12.50;62.40;;;;;;4050814;29;19923;-86
2023/06/01 07:30:57;;;;;;;;;;;12.60;62.70;;;;;;4058632;29;19924;-84
2023/06/01 07:33:18;;;;;;;;;;;12.60;62.90;;;;;;4059360;29;19923;-85
2023/06/01 07:35:39;;;;;;;;;;;12.60;62.60;;;;;;4061153;29;19981;-85
2023/06/01 07:38:00;;;;;;;;;;;12.70;62.50;;;;;;4063534;29;19923;-86
2023/06/01 07:40:21;;;;;;;;;;;12.70;62.20;;;;;;4062694;29;19923;-85
2023/06/01 07:42:42;;;;;;;;;;;12.80;62.00;;;;;;4063947;29;19934;-87
2023/06/01 07:45:03;;;;;;;;;;;12.80;61.70;;;;;;4059236;29;20525;-84
2023/06/01 07:47:25;;;;;;;;;;;12.80;61.70;;;;;;4061780;29;19981;-85
2023/06/01 07:49:45;;;;;;;;;;;12.80;61.90;;;;;;4051584;29;19967;-85
2023/06/01 07:52:07;;;;;;;;;;;12.90;62.10;;;;;;4051546;29;19923;-85
2023/06/01 07:54:28;;;;;;;;;;;12.90;62.00;;;;;;4051537;29;19955;-86
2023/06/01 07:56:48;;;;;;;;;;;12.90;62.10;;;;;;4062930;29;20010;-85
2023/06/01 07:59:09;;;;;;;;;;;13.00;61.80;;;;;;4065545;29;19954;-85
2023/06/01 08:01:30;;;;;;;;;;;13.00;61.40;;;;;;4064344;29;19920;-84
2023/06/01 08:03:52;;;;;;;;;;;13.10;61.50;;;;;;4063480;29;19919;-83
2023/06/01 08:06:14;;;;;;;;;;;13.00;60.90;;;;;;4064325;29;19922;-86
2023/06/01 08:08:35;;;;;;;;;;;13.00;60.00;;;;;;4052932;29;19919;-84
2023/06/01 08:10:56;;;;;;;;;;;13.00;60.00;;;;;;4065163;29;19919;-88
2023/06/01 08:13:18;;;;;;;;;;;13.10;60.20;;;;;;4064505;29;19923;-85
2023/06/01 08:15:39;;;;;;;;;;;13.10;60.40;;;;;;4063422;29;19923;-86
2023/06/01 08:18:00;;;;;;;;;;;13.10;60.40;;;;;;4076794;29;19916;-87
2023/06/01 08:20:22;;;;;;;;;;;13.10;60.30;;;;;;4053554;29;20395;-85
2023/06/01 08:22:43;;;;;;;;;;;13.20;60.50;;;;;;4058233;29;19919;-87
2023/06/01 08:25:04;;;;;;;;;;;13.20;60.60;;;;;;4062553;29;20443;-85
2023/06/01 08:27:27;;;;;;;;;;;13.20;60.50;;;;;;4063548;29;19930;-86
2023/06/01 08:29:49;;;;;;;;;;;13.20;60.20;;;;;;4056739;29;19926;-84
2023/06/01 08:32:11;;;;;;;;;;;13.30;60.10;;;;;;4063071;29;20761;-85
2023/06/01 08:34:31;;;;;;;;;;;13.30;60.20;;;;;;4062686;29;19930;-85
2023/06/01 08:36:52;;;;;;;;;;;13.40;60.30;;;;;;4063330;29;19922;-85
2023/06/01 08:39:23;;;;;;;;;;;13.40;60.50;;;;;;4055257;29;20006;-86
2023/06/01 08:41:49;;;;;;;;;;;13.40;59.70;;;;;;4060331;29;19923;-85
2023/06/01 08:44:10;;;;;;;;;;;13.40;60.00;;;;;;4055015;29;20347;-86
2023/06/01 08:46:31;;;;;;;;;;;13.50;59.90;;;;;;4061915;29;20367;-86
2023/06/01 08:48:53;;;;;;;;;;;13.40;59.60;;;;;;4063531;29;19923;-86
2023/06/01 08:51:14;;;;;;;;;;;13.50;59.60;;;;;;4052320;29;20003;-86
2023/06/01 08:53:38;;;;;;;;;;;13.50;59.80;;;;;;4063502;29;20649;-85
2023/06/01 08:55:59;;;;;;;;;;;13.60;60.00;;;;;;4061457;29;19923;-87
2023/06/01 08:58:20;;;;;;;;;;;13.60;59.80;;;;;;4047961;29;20006;-87
2023/06/01 09:00:42;;;;;;;;;;;13.70;59.90;;;;;;4062368;29;19915;-87
2023/06/01 09:03:02;;;;;;;;;;;13.80;59.60;;;;;;4062875;29;19915;-87
2023/06/01 09:05:23;;;;;;;;;;;13.70;59.50;;;;;;4047726;29;19995;-85
2023/06/01 09:07:44;;;;;;;;;;;13.80;59.00;;;;;;4059794;29;19923;-85
2023/06/01 09:10:06;;;;;;;;;;;13.80;58.50;;;;;;4052068;29;19920;-85
2023/06/01 09:12:31;;;;;;;;;;;13.90;58.20;;;;;;4059778;29;19969;-86
2023/06/01 09:15:08;;;;;;;;;;;13.90;58.50;;;;;;4063922;29;19955;-86
2023/06/01 09:17:29;;;;;;;;;;;13.90;58.00;;;;;;4059092;29;19915;-86
2023/06/01 09:19:53;;;;;;;;;;;14.00;58.40;;;;;;4053964;29;19919;-85
2023/06/01 09:22:14;;;;;;;;;;;14.00;58.40;;;;;;4049156;29;20300;-87
2023/06/01 09:24:35;;;;;;;;;;;14.00;58.40;;;;;;4060526;29;20359;-85
2023/06/01 09:27:00;;;;;;;;;;;14.20;58.10;;;;;;4055012;29;20099;-86
2023/06/01 09:29:20;;;;;;;;;;;14.10;57.80;;;;;;4060660;29;19970;-85
2023/06/01 09:31:44;;;;;;;;;;;14.10;57.60;;;;;;4061312;29;20017;-85
2023/06/01 09:34:06;;;;;;;;;;;14.20;58.20;;;;;;4050850;29;20478;-84
2023/06/01 09:36:26;;;;;;;;;;;14.20;58.20;;;;;;4062933;29;19961;-85
2023/06/01 09:38:47;;;;;;;;;;;14.30;58.30;;;;;;4061233;29;19962;-85
2023/06/01 09:41:08;;;;;;;;;;;14.40;58.00;;;;;;4062225;29;20020;-85
2023/06/01 09:43:29;;;;;;;;;;;14.40;57.20;;;;;;4061580;29;19920;-88
2023/06/01 09:46:07;;;;;;;;;;;14.50;57.60;;;;;;4061778;29;20387;-85
2023/06/01 09:48:29;;;;;;;;;;;14.50;57.40;;;;;;4060447;29;19923;-85
2023/06/01 09:50:50;;;;;;;;;;;14.60;57.10;;;;;;4058473;29;19927;-85
2023/06/01 09:53:11;;;;;;;;;;;14.70;57.20;;;;;;4056916;29;19931;-85
2023/06/01 09:55:32;;;;;;;;;;;14.80;57.10;;;;;;4059239;29;19920;-84
2023/06/01 09:58:12;;;;;;;;;;;14.80;56.80;;;;;;4057152;29;20419;-85
2023/06/01 10:00:33;;;;;;;;;;;14.90;56.80;;;;;;4059420;29;19916;-85
2023/06/01 10:02:54;;;;;;;;;;;14.90;55.80;;;;;;4058476;29;19915;-84
2023/06/01 10:05:15;;;;;;;;;;;14.90;55.70;;;;;;4058555;29;19942;-85
2023/06/01 10:07:38;;;;;;;;;;;15.00;55.00;;;;;;4056959;29;20553;-88
2023/06/01 10:10:02;;;;;;;;;;;15.00;55.10;;;;;;4048569;29;20006;-85
2023/06/01 10:12:23;;;;;;;;;;;15.00;55.70;;;;;;4059154;29;20014;-85
2023/06/01 10:14:44;;;;;;;;;;;15.10;56.00;;;;;;4059025;29;19915;-86
2023/06/01 10:17:05;;;;;;;;;;;15.10;55.80;;;;;;4062033;29;19919;-86
2023/06/01 10:19:27;;;;;;;;;;;15.20;55.50;;;;;;4050970;29;19988;-85
2023/06/01 10:21:48;;;;;;;;;;;15.20;55.20;;;;;;4059365;29;19919;-85
2023/06/01 10:24:09;;;;;;;;;;;15.20;54.70;;;;;;4055473;29;19951;-85
2023/06/01 10:26:33;;;;;;;;;;;15.30;55.20;;;;;;4047817;29;19920;-85
2023/06/01 10:28:55;;;;;;;;;;;15.30;54.80;;;;;;4057130;29;19919;-86
2023/06/01 10:31:37;;;;;;;;;;;15.40;54.40;;;;;;4057161;29;20447;-87
2023/06/01 10:33:58;;;;;;;;;;;15.40;54.40;;;;;;4056547;29;19983;-88
2023/06/01 10:36:18;;;;;;;;;;;15.40;54.50;;;;;;4060077;29;20351;-86
2023/06/01 10:38:40;;;;;;;;;;;15.40;54.20;;;;;;4060243;29;20459;-86
2023/06/01 10:41:20;;;;;;;;;;;15.50;54.50;;;;;;4060353;29;20316;-85
2023/06/01 10:43:41;;;;;;;;;;;15.50;54.30;;;;;;4057382;29;20395;-85
2023/06/01 10:46:02;;;;;;;;;;;15.50;54.30;;;;;;4056088;29;19926;-85
2023/06/01 10:48:43;;;;;;;;;;;15.60;54.30;;;;;;4055773;29;20034;-85
2023/06/01 10:51:16;;;;;;;;;;;15.50;53.90;;;;;;4058199;29;19927;-84
2023/06/01 10:53:36;;;;;;;;;;;15.60;53.60;;;;;;4060546;29;20155;-86
2023/06/01 10:56:16;;;;;;;;;;;15.70;53.50;;;;;;4061985;29;19927;-86
2023/06/01 10:58:37;;;;;;;;;;;15.60;53.70;;;;;;4058294;29;19915;-86
2023/06/01 11:00:58;;;;;;;;;;;15.70;53.40;;;;;;4059659;29;19930;-85
2023/06/01 11:03:38;;;;;;;;;;;15.70;53.40;;;;;;4061206;29;20001;-85
2023/06/01 11:05:59;;;;;;;;;;;15.80;53.70;;;;;;4059834;29;19919;-85
2023/06/01 11:08:20;;;;;;;;;;;15.90;53.30;;;;;;4059885;29;19947;-85
2023/06/01 11:10:50;;;;;;;;;;;15.90;54.10;;;;;;4059264;29;19981;-85
2023/06/01 11:13:12;;;;;;;;;;;16.00;53.80;;;;;;4051974;29;21124;-85
2023/06/01 11:15:33;;;;;;;;;;;16.00;53.70;;;;;;4051441;29;19919;-86
2023/06/01 11:17:57;;;;;;;;;;;16.10;53.60;;;;;;4065128;29;19919;-85
2023/06/01 11:20:20;;;;;;;;;;;16.10;53.50;;;;;;4065914;29;19930;-84
2023/06/01 11:22:44;;;;;;;;;;;16.20;53.40;;;;;;4064514;29;20351;-85
2023/06/01 11:25:06;;;;;;;;;;;16.20;53.60;;;;;;4065185;29;19919;-87
2023/06/01 11:27:27;;;;;;;;;;;16.20;53.10;;;;;;4051441;29;19926;-85
2023/06/01 11:29:48;;;;;;;;;;;16.20;53.00;;;;;;4051342;29;20021;-86
2023/06/01 11:32:09;;;;;;;;;;;16.30;52.80;;;;;;4059498;29;19987;-85
2023/06/01 11:34:55;;;;;;;;;;;;;;;;;;;;;
2023/06/01 11:37:20;;;;;;;;;;;16.40;53.00;;;;;;4054320;29;20061;-85
2023/06/01 11:39:41;;;;;;;;;;;16.40;52.20;;;;;;4057655;29;19926;-85
2023/06/01 11:42:06;;;;;;;;;;;16.40;52.60;;;;;;4054504;29;20372;-86
2023/06/01 11:44:27;;;;;;;;;;;16.50;52.60;;;;;;4047837;29;19950;-85
2023/06/01 11:46:51;;;;;;;;;;;16.50;52.70;;;;;;4048858;29;19930;-87
2023/06/01 11:49:13;;;;;;;;;;;16.50;52.50;;;;;;4061170;29;19923;-85
2023/06/01 11:51:42;;;;;;;;;;;16.50;52.20;;;;;;4063730;29;19982;-85
2023/06/01 11:54:03;;;;;;;;;;;16.60;52.00;;;;;;4056775;29;19953;-85
2023/06/01 11:56:29;;;;;;;;;;;16.60;51.90;;;;;;4058560;29;19926;-85
2023/06/01 11:58:50;;;;;;;;;;;16.70;52.40;;;;;;4060926;29;19919;-85
2023/06/01 12:01:11;;;;;;;;;;;16.70;52.50;;;;;;4062615;29;19961;-85
2023/06/01 12:03:32;;;;;;;;;;;16.70;52.60;;;;;;4061445;29;20486;-84
2023/06/01 12:05:53;;;;;;;;;;;16.80;52.60;;;;;;4062340;29;19992;-86
2023/06/01 12:08:15;;;;;;;;;;;16.80;52.60;;;;;;4061693;29;19923;-85
2023/06/01 12:10:36;;;;;;;;;;;16.80;52.40;;;;;;4047295;29;20580;-84
2023/06/01 12:12:57;;;;;;;;;;;16.90;51.80;;;;;;4050170;29;19994;-83
2023/06/01 12:15:18;;;;;;;;;;;16.90;52.40;;;;;;4057013;29;19929;-84
2023/06/01 12:17:51;;;;;;;;;;;16.90;52.40;;;;;;4042895;29;20209;-85
2023/06/01 12:20:12;;;;;;;;;;;17.00;52.40;;;;;;4065706;29;19919;-86
2023/06/01 12:23:05;;;;;;;;;;;17.00;51.70;;;;;;4065466;29;19919;-86
2023/06/01 12:25:26;;;;;;;;;;;17.10;52.00;;;;;;4080272;29;19926;-83
2023/06/01 12:28:04;;;;;;;;;;;17.10;51.60;;;;;;4073233;28;19979;-85
2023/06/01 12:30:25;;;;;;;;;;;17.10;51.80;;;;;;4078004;29;19922;-84
2023/06/01 12:32:46;;;;;;;;;;;17.10;51.20;;;;;;4076122;29;19933;-86
2023/06/01 12:35:07;;;;;;;;;;;17.10;50.50;;;;;;4077239;29;19919;-85
2023/06/01 12:37:41;;;;;;;;;;;17.10;50.70;;;;;;4074532;28;19918;-84
2023/06/01 12:40:09;;;;;;;;;;;17.10;50.50;;;;;;4075450;29;19939;-84
2023/06/01 12:42:35;;;;;;;;;;;17.10;50.10;;;;;;4062413;29;20769;-85
2023/06/01 12:44:57;;;;;;;;;;;17.10;50.50;;;;;;4071633;29;19923;-85
2023/06/01 12:47:18;;;;;;;;;;;17.10;50.50;;;;;;4071796;29;19929;-85
2023/06/01 12:49:58;;;;;;;;;;;17.10;50.90;;;;;;4078977;29;19925;-87
2023/06/01 12:52:21;;;;;;;;;;;17.10;50.90;;;;;;4059726;29;19954;-86
2023/06/01 12:55:10;;;;;;;;;;;17.20;50.90;;;;;;4078082;29;20313;-84
2023/06/01 12:57:48;;;;;;;;;;;17.10;50.30;;;;;;4077945;29;19914;-85
2023/06/01 13:00:15;;;;;;;;;;;17.10;49.80;;;;;;4079555;29;19969;-85
2023/06/01 13:02:36;;;;;;;;;;;17.10;50.20;;;;;;4063116;29;20493;-86
2023/06/01 13:04:59;;;;;;;;;;;17.10;50.80;;;;;;4075032;29;19970;-86
2023/06/01 13:07:23;;;;;;;;;;;17.10;50.70;;;;;;4084012;29;19926;-86
2023/06/01 13:09:44;;;;;;;;;;;17.10;50.70;;;;;;4075431;29;19915;-85
2023/06/01 13:12:35;;;;;;;;;;;;;;;;;;;;;
2023/06/01 13:14:56;;;;;;;;;;;17.10;50.80;;;;;;4079046;29;19955;-84
2023/06/01 13:17:43;;;;;;;;;;;17.20;50.90;;;;;;4067125;29;19923;-85
2023/06/01 13:20:06;;;;;;;;;;;17.20;50.80;;;;;;4068355;29;19930;-85
2023/06/01 13:22:27;;;;;;;;;;;17.20;51.00;;;;;;4076006;29;19929;-83
2023/06/01 13:24:48;;;;;;;;;;;17.20;51.20;;;;;;4078360;29;19926;-85
2023/06/01 13:27:09;;;;;;;;;;;17.20;51.40;;;;;;4079271;29;19918;-84
2023/06/01 13:29:29;;;;;;;;;;;17.20;51.30;;;;;;4081255;29;19926;-85
2023/06/01 13:31:50;;;;;;;;;;;17.20;51.20;;;;;;4080189;29;19923;-85
2023/06/01 13:34:11;;;;;;;;;;;17.30;50.70;;;;;;4082714;29;19926;-84
2023/06/01 13:39:25;;;;;;;;;;;17.30;50.10;;;;;;4075618;29;19918;-85
2023/06/01 13:41:50;;;;;;;;;;;17.30;50.10;;;;;;4066493;29;20026;-85
2023/06/01 13:44:11;;;;;;;;;;;17.30;50.60;;;;;;4064155;29;19962;-84
2023/06/01 13:47:10;;;;;;;;;;;17.30;50.70;;;;;;4074949;29;19968;-84
2023/06/01 13:49:31;;;;;;;;;;;17.30;50.70;;;;;;4025307;29;19920;-85
2023/06/01 13:52:25;;;;;;;;;;;17.30;50.80;;;;;;4031426;29;19970;-85
2023/06/01 13:54:45;;;;;;;;;;;17.30;50.30;;;;;;4062926;29;19915;-85
2023/06/01 13:57:19;;;;;;;;;;;17.30;50.60;;;;;;4075527;29;20780;-84
2023/06/01 14:00:08;;;;;;;;;;;;;;;;;;;;;